Time,TemperatureF,DewpointF,PressureIn,WindDirection,WindDirectionDegrees,WindSpeedMPH,WindSpeedGustMPH,Humidity,HourlyPrecipIn,Conditions,Clouds,dailyrainin,SoftwareType,DateUTC
2013-02-07 00:00:00,23.3,12.9,30.33,NNE,28,1.0,3.0,64,0.00,,---,0.00,VWS V14.01,2013-02-07 05:00:00,
2013-02-07 00:01:00,23.3,12.6,30.33,NNE,28,0.0,0.0,63,0.00,,---,0.00,VWS V14.01,2013-02-07 05:01:00,
2013-02-07 00:06:00,23.1,12.8,30.33,NNE,28,0.0,1.0,64,0.00,,---,0.00,VWS V14.01,2013-02-07 05:06:00,
2013-02-07 00:11:00,23.0,12.6,30.32,NNE,28,0.0,1.0,64,0.00,,---,0.00,VWS V14.01,2013-02-07 05:11:00,
2013-02-07 00:16:00,22.9,12.6,30.33,NNE,28,0.0,2.0,64,0.00,,---,0.00,VWS V14.01,2013-02-07 05:16:00,
2013-02-07 00:21:00,22.8,12.5,30.33,NNE,32,0.0,2.0,64,0.00,,---,0.00,VWS V14.01,2013-02-07 05:21:00,
2013-02-07 00:26:00,22.7,12.7,30.33,NNE,16,0.0,3.0,65,0.00,,---,0.00,VWS V14.01,2013-02-07 05:26:00,
2013-02-07 00:30:00,21.3,11.4,30.35,NNE,15,0.0,2.0,65,0.00,,---,0.00,VWS V14.01,2013-02-07 05:30:00,
2013-02-07 00:31:00,22.7,12.7,30.33,North,11,0.0,2.0,65,0.00,,---,0.00,VWS V14.01,2013-02-07 05:31:00,
2013-02-07 00:36:00,22.6,12.6,30.33,North,5,0.0,5.0,65,0.00,,---,0.00,VWS V14.01,2013-02-07 05:36:00,
2013-02-07 00:41:00,22.4,12.8,30.33,NNE,15,1.0,5.0,66,0.00,,---,0.00,VWS V14.01,2013-02-07 05:41:00,
2013-02-07 00:46:00,22.3,12.3,30.34,NE,34,2.0,5.0,65,0.00,,---,0.00,VWS V14.01,2013-02-07 05:46:00,
2013-02-07 00:51:00,22.2,12.2,30.34,NE,34,0.0,5.0,65,0.00,,---,0.00,VWS V14.01,2013-02-07 05:51:00,
2013-02-07 00:57:00,22.1,12.1,30.35,NE,34,0.0,5.0,65,0.00,,---,0.00,VWS V14.01,2013-02-07 05:57:00,
2013-02-07 01:00:00,19.9,11.1,30.36,NNE,15,0.0,0.0,68,0.00,,---,0.00,VWS V14.01,2013-02-07 06:00:00,
2013-02-07 01:02:00,21.9,12.0,30.35,NE,35,2.0,2.0,65,0.00,,---,0.00,VWS V14.01,2013-02-07 06:02:00,
2013-02-07 01:07:00,21.8,12.2,30.35,NNE,15,0.0,2.0,66,0.00,,---,0.00,VWS V14.01,2013-02-07 06:07:00,
2013-02-07 01:12:00,21.7,12.1,30.35,NNE,15,0.0,2.0,66,0.00,,---,0.00,VWS V14.01,2013-02-07 06:12:00,
2013-02-07 01:17:00,21.6,12.0,30.35,NNE,15,0.0,2.0,66,0.00,,---,0.00,VWS V14.01,2013-02-07 06:17:00,
2013-02-07 01:22:00,21.5,11.9,30.35,NNE,15,0.0,2.0,66,0.00,,---,0.00,VWS V14.01,2013-02-07 06:22:00,
2013-02-07 01:27:00,21.3,11.7,30.35,NNE,15,0.0,2.0,66,0.00,,---,0.00,VWS V14.01,2013-02-07 06:27:00,
2013-02-07 01:30:00,19.5,11.3,30.37,NNE,15,0.0,1.0,70,0.00,,---,0.00,VWS V14.01,2013-02-07 06:30:00,
2013-02-07 01:32:00,21.2,11.3,30.35,NNE,15,0.0,0.0,65,0.00,,---,0.00,VWS V14.01,2013-02-07 06:32:00,
2013-02-07 01:37:00,21.1,11.5,30.36,NNE,15,0.0,0.0,66,0.00,,---,0.00,VWS V14.01,2013-02-07 06:37:00,
2013-02-07 01:42:00,20.8,11.6,30.35,NNE,15,0.0,0.0,67,0.00,,---,0.00,VWS V14.01,2013-02-07 06:42:00,
2013-02-07 01:47:00,20.5,12.0,30.36,NNE,15,0.0,0.0,69,0.00,,---,0.00,VWS V14.01,2013-02-07 06:47:00,
2013-02-07 01:52:00,20.1,11.2,30.36,NNE,15,0.0,0.0,68,0.00,,---,0.00,VWS V14.01,2013-02-07 06:52:00,
2013-02-07 01:58:00,19.9,11.1,30.36,NNE,15,0.0,0.0,68,0.00,,---,0.00,VWS V14.01,2013-02-07 06:58:00,
2013-02-07 02:00:00,19.4,11.2,30.37,NNE,15,0.0,1.0,70,0.00,,---,0.00,VWS V14.01,2013-02-07 07:00:00,
2013-02-07 02:03:00,19.9,11.1,30.36,NNE,15,0.0,0.0,68,0.00,,---,0.00,VWS V14.01,2013-02-07 07:03:00,
2013-02-07 02:08:00,20.0,11.1,30.36,NNE,15,0.0,0.0,68,0.00,,---,0.00,VWS V14.01,2013-02-07 07:08:00,
2013-02-07 02:13:00,20.0,11.1,30.36,NNE,15,0.0,0.0,68,0.00,,---,0.00,VWS V14.01,2013-02-07 07:13:00,
2013-02-07 02:18:00,19.9,11.1,30.36,NNE,15,0.0,0.0,68,0.00,,---,0.00,VWS V14.01,2013-02-07 07:18:00,
2013-02-07 02:23:00,19.9,11.1,30.36,NNE,15,0.0,1.0,68,0.00,,---,0.00,VWS V14.01,2013-02-07 07:23:00,
2013-02-07 02:28:00,19.7,11.2,30.37,NNE,15,0.0,1.0,69,0.00,,---,0.00,VWS V14.01,2013-02-07 07:28:00,
2013-02-07 02:30:00,19.4,11.2,30.38,NNE,15,0.0,1.0,70,0.00,,---,0.00,VWS V14.01,2013-02-07 07:30:00,
2013-02-07 02:33:00,19.4,11.2,30.37,NNE,15,0.0,0.0,70,0.00,,---,0.00,VWS V14.01,2013-02-07 07:33:00,
2013-02-07 02:38:00,19.6,11.1,30.37,NNE,15,0.0,0.0,69,0.00,,---,0.00,VWS V14.01,2013-02-07 07:38:00,
2013-02-07 02:43:00,19.7,10.9,30.37,NNE,15,0.0,1.0,68,0.00,,---,0.00,VWS V14.01,2013-02-07 07:43:00,
2013-02-07 02:49:00,19.7,11.8,30.37,NNE,15,1.0,1.0,71,0.00,,---,0.00,VWS V14.01,2013-02-07 07:49:00,
2013-02-07 02:54:00,19.5,11.3,30.37,NNE,15,0.0,1.0,70,0.00,,---,0.00,VWS V14.01,2013-02-07 07:54:00,
2013-02-07 02:59:00,19.4,11.2,30.37,NNE,15,0.0,1.0,70,0.00,,---,0.00,VWS V14.01,2013-02-07 07:59:00,
2013-02-07 03:00:00,18.9,10.8,30.38,NNE,15,0.0,1.0,70,0.00,,---,0.00,VWS V14.01,2013-02-07 08:00:00,
2013-02-07 03:04:00,19.3,11.1,30.37,NNE,15,0.0,0.0,70,0.00,,---,0.00,VWS V14.01,2013-02-07 08:04:00,
2013-02-07 03:09:00,19.3,11.1,30.38,NNE,15,0.0,0.0,70,0.00,,---,0.00,VWS V14.01,2013-02-07 08:09:00,
2013-02-07 03:14:00,19.3,10.8,30.38,NNE,15,0.0,0.0,69,0.00,,---,0.00,VWS V14.01,2013-02-07 08:14:00,
2013-02-07 03:19:00,19.5,11.3,30.38,NNE,15,0.0,1.0,70,0.00,,---,0.00,VWS V14.01,2013-02-07 08:19:00,
2013-02-07 03:24:00,19.5,11.3,30.37,NNE,15,0.0,1.0,70,0.00,,---,0.00,VWS V14.01,2013-02-07 08:24:00,
2013-02-07 03:29:00,19.4,11.2,30.38,NNE,15,0.0,1.0,70,0.00,,---,0.00,VWS V14.01,2013-02-07 08:29:00,
2013-02-07 03:30:00,18.3,10.2,30.39,NNE,15,0.0,0.0,70,0.00,,---,0.00,VWS V14.01,2013-02-07 08:30:00,
2013-02-07 03:34:00,19.1,11.3,30.38,NNE,15,0.0,0.0,71,0.00,,---,0.00,VWS V14.01,2013-02-07 08:34:00,
2013-02-07 03:40:00,19.1,11.3,30.38,NNE,15,0.0,1.0,71,0.00,,---,0.00,VWS V14.01,2013-02-07 08:40:00,
2013-02-07 03:45:00,19.2,11.0,30.38,NNE,15,0.0,1.0,70,0.00,,---,0.00,VWS V14.01,2013-02-07 08:45:00,
2013-02-07 03:50:00,19.1,11.3,30.38,NNE,15,0.0,1.0,71,0.00,,---,0.00,VWS V14.01,2013-02-07 08:50:00,
2013-02-07 03:55:00,19.0,10.8,30.38,NNE,15,0.0,1.0,70,0.00,,---,0.00,VWS V14.01,2013-02-07 08:55:00,
2013-02-07 04:00:00,18.9,10.8,30.38,NNE,15,0.0,1.0,70,0.00,,---,0.00,VWS V14.01,2013-02-07 09:00:00,
2013-02-07 04:05:00,18.8,10.6,30.39,NNE,15,0.0,0.0,70,0.00,,---,0.00,VWS V14.01,2013-02-07 09:05:00,
2013-02-07 04:10:00,18.8,10.3,30.39,NNE,15,0.0,0.0,69,0.00,,---,0.00,VWS V14.01,2013-02-07 09:10:00,
2013-02-07 04:15:00,18.7,10.2,30.39,NNE,15,0.0,0.0,69,0.00,,---,0.00,VWS V14.01,2013-02-07 09:15:00,
2013-02-07 04:20:00,18.6,10.5,30.40,NNE,15,0.0,0.0,70,0.00,,---,0.00,VWS V14.01,2013-02-07 09:20:00,
2013-02-07 04:25:00,18.4,10.3,30.39,NNE,15,0.0,0.0,70,0.00,,---,0.00,VWS V14.01,2013-02-07 09:25:00,
2013-02-07 04:30:00,18.3,10.2,30.39,NNE,15,0.0,0.0,70,0.00,,---,0.00,VWS V14.01,2013-02-07 09:30:00,
2013-02-07 04:35:00,18.3,10.5,30.40,NNE,15,0.0,0.0,71,0.00,,---,0.00,VWS V14.01,2013-02-07 09:35:00,
2013-02-07 04:40:00,18.2,10.1,30.40,NNE,15,0.0,0.0,70,0.00,,---,0.00,VWS V14.01,2013-02-07 09:40:00,
2013-02-07 04:45:00,18.2,10.1,30.40,NNE,15,0.0,0.0,70,0.00,,---,0.00,VWS V14.01,2013-02-07 09:45:00,
2013-02-07 04:50:00,18.2,10.1,30.40,NNE,15,0.0,0.0,70,0.00,,---,0.00,VWS V14.01,2013-02-07 09:50:00,
2013-02-07 04:56:00,18.1,10.0,30.40,NNE,15,0.0,0.0,70,0.00,,---,0.00,VWS V14.01,2013-02-07 09:56:00,
2013-02-07 05:00:00,17.4,9.9,30.40,NNE,15,0.0,0.0,72,0.00,,---,0.00,VWS V14.01,2013-02-07 10:00:00,
2013-02-07 05:01:00,18.0,9.9,30.40,NNE,15,0.0,0.0,70,0.00,,---,0.00,VWS V14.01,2013-02-07 10:01:00,
2013-02-07 05:06:00,17.9,9.8,30.41,NNE,15,0.0,0.0,70,0.00,,---,0.00,VWS V14.01,2013-02-07 10:06:00,
2013-02-07 05:11:00,17.8,10.0,30.41,NNE,15,0.0,0.0,71,0.00,,---,0.00,VWS V14.01,2013-02-07 10:11:00,
2013-02-07 05:16:00,17.6,9.8,30.41,NNE,15,0.0,0.0,71,0.00,,---,0.00,VWS V14.01,2013-02-07 10:16:00,
2013-02-07 05:21:00,17.6,9.8,30.41,NNE,15,0.0,0.0,71,0.00,,---,0.00,VWS V14.01,2013-02-07 10:21:00,
2013-02-07 05:26:00,17.6,9.8,30.41,NNE,15,0.0,0.0,71,0.00,,---,0.00,VWS V14.01,2013-02-07 10:26:00,
2013-02-07 05:30:00,18.0,10.2,30.42,NNE,15,0.0,0.0,71,0.00,,---,0.00,VWS V14.01,2013-02-07 10:30:00,
2013-02-07 05:32:00,17.6,9.8,30.41,NNE,15,0.0,0.0,71,0.00,,---,0.00,VWS V14.01,2013-02-07 10:32:00,
2013-02-07 05:37:00,17.6,9.8,30.41,NNE,15,0.0,0.0,71,0.00,,---,0.00,VWS V14.01,2013-02-07 10:37:00,
2013-02-07 05:42:00,17.5,9.7,30.41,NNE,15,0.0,0.0,71,0.00,,---,0.00,VWS V14.01,2013-02-07 10:42:00,
2013-02-07 05:47:00,17.5,9.7,30.41,NNE,15,0.0,0.0,71,0.00,,---,0.00,VWS V14.01,2013-02-07 10:47:00,
2013-02-07 05:52:00,17.5,10.0,30.40,NNE,15,0.0,0.0,72,0.00,,---,0.00,VWS V14.01,2013-02-07 10:52:00,
2013-02-07 05:57:00,17.4,10.2,30.40,NNE,15,0.0,0.0,73,0.00,,---,0.00,VWS V14.01,2013-02-07 10:57:00,
2013-02-07 06:00:00,18.3,10.2,30.44,NNE,15,0.0,0.0,70,0.00,,---,0.00,VWS V14.01,2013-02-07 11:00:00,
2013-02-07 06:02:00,17.3,9.8,30.41,NNE,15,0.0,0.0,72,0.00,,---,0.00,VWS V14.01,2013-02-07 11:02:00,
2013-02-07 06:07:00,17.3,9.8,30.41,NNE,15,0.0,0.0,72,0.00,,---,0.00,VWS V14.01,2013-02-07 11:07:00,
2013-02-07 06:12:00,17.5,10.3,30.41,NNE,15,0.0,0.0,73,0.00,,---,0.00,VWS V14.01,2013-02-07 11:12:00,
2013-02-07 06:17:00,17.5,10.0,30.41,NNE,15,0.0,0.0,72,0.00,,---,0.00,VWS V14.01,2013-02-07 11:17:00,
2013-02-07 06:22:00,17.8,10.6,30.42,NNE,15,0.0,0.0,73,0.00,,---,0.00,VWS V14.01,2013-02-07 11:22:00,
2013-02-07 06:27:00,17.9,10.4,30.42,NNE,15,0.0,0.0,72,0.00,,---,0.00,VWS V14.01,2013-02-07 11:27:00,
2013-02-07 06:30:00,17.7,11.1,30.46,NNE,15,0.0,1.0,75,0.00,,---,0.00,VWS V14.01,2013-02-07 11:30:00,
2013-02-07 06:33:00,18.1,10.3,30.42,NNE,15,0.0,0.0,71,0.00,,---,0.00,VWS V14.01,2013-02-07 11:33:00,
2013-02-07 06:38:00,18.2,10.4,30.43,NNE,15,0.0,0.0,71,0.00,,---,0.00,VWS V14.01,2013-02-07 11:38:00,
2013-02-07 06:43:00,18.2,10.4,30.43,NNE,15,0.0,0.0,71,0.00,,---,0.00,VWS V14.01,2013-02-07 11:43:00,
2013-02-07 06:48:00,18.3,10.2,30.43,NNE,15,0.0,0.0,70,0.00,,---,0.00,VWS V14.01,2013-02-07 11:48:00,
2013-02-07 06:53:00,18.3,10.2,30.43,NNE,15,0.0,0.0,70,0.00,,---,0.00,VWS V14.01,2013-02-07 11:53:00,
2013-02-07 06:58:00,18.3,10.2,30.44,NNE,15,0.0,0.0,70,0.00,,---,0.00,VWS V14.01,2013-02-07 11:58:00,
2013-02-07 07:00:00,18.7,12.1,30.47,NNE,15,0.0,1.0,75,0.00,,---,0.00,VWS V14.01,2013-02-07 12:00:00,
2013-02-07 07:03:00,18.3,10.8,30.45,NNE,15,0.0,0.0,72,0.00,,---,0.00,VWS V14.01,2013-02-07 12:03:00,
2013-02-07 07:08:00,18.2,11.3,30.45,NNE,15,0.0,0.0,74,0.00,,---,0.00,VWS V14.01,2013-02-07 12:08:00,
2013-02-07 07:13:00,18.0,11.1,30.46,NNE,15,0.0,0.0,74,0.00,,---,0.00,VWS V14.01,2013-02-07 12:13:00,
2013-02-07 07:18:00,17.9,11.9,30.46,NNE,15,0.0,1.0,77,0.00,,---,0.00,VWS V14.01,2013-02-07 12:18:00,
2013-02-07 07:24:00,17.7,11.7,30.46,NNE,15,0.0,1.0,77,0.00,,---,0.00,VWS V14.01,2013-02-07 12:24:00,
2013-02-07 07:29:00,17.7,11.1,30.46,NNE,15,0.0,1.0,75,0.00,,---,0.00,VWS V14.01,2013-02-07 12:29:00,
2013-02-07 07:30:00,19.4,11.2,30.48,NNE,15,0.0,1.0,70,0.00,,---,0.00,VWS V14.01,2013-02-07 12:30:00,
2013-02-07 07:34:00,17.7,10.8,30.46,NNE,15,0.0,0.0,74,0.00,,---,0.00,VWS V14.01,2013-02-07 12:34:00,
2013-02-07 07:39:00,18.0,11.1,30.46,NNE,15,0.0,0.0,74,0.00,,---,0.00,VWS V14.01,2013-02-07 12:39:00,
2013-02-07 07:44:00,18.1,11.2,30.47,NNE,15,0.0,0.0,74,0.00,,---,0.00,VWS V14.01,2013-02-07 12:44:00,
2013-02-07 07:49:00,18.3,11.7,30.47,NNE,15,0.0,0.0,75,0.00,,---,0.00,VWS V14.01,2013-02-07 12:49:00,
2013-02-07 07:54:00,18.5,11.6,30.47,NNE,15,0.0,1.0,74,0.00,,---,0.00,VWS V14.01,2013-02-07 12:54:00,
2013-02-07 07:59:00,18.7,12.4,30.47,NNE,15,0.0,1.0,76,0.00,,---,0.00,VWS V14.01,2013-02-07 12:59:00,
2013-02-07 08:00:00,20.3,12.7,30.47,NNE,15,0.0,2.0,72,0.00,,---,0.00,VWS V14.01,2013-02-07 13:00:00,
2013-02-07 08:04:00,18.8,11.9,30.47,NNE,15,0.0,0.0,74,0.00,,---,0.00,VWS V14.01,2013-02-07 13:04:00,
2013-02-07 08:09:00,19.0,11.5,30.48,NNE,15,0.0,1.0,72,0.00,,---,0.00,VWS V14.01,2013-02-07 13:09:00,
2013-02-07 08:14:00,19.1,11.6,30.48,NNE,15,0.0,1.0,72,0.00,,---,0.00,VWS V14.01,2013-02-07 13:14:00,
2013-02-07 08:19:00,19.2,11.7,30.47,NNE,15,0.0,1.0,72,0.00,,---,0.00,VWS V14.01,2013-02-07 13:19:00,
2013-02-07 08:24:00,19.3,11.1,30.47,NNE,15,0.0,1.0,70,0.00,,---,0.00,VWS V14.01,2013-02-07 13:24:00,
2013-02-07 08:29:00,19.4,11.2,30.48,NNE,15,0.0,1.0,70,0.00,,---,0.00,VWS V14.01,2013-02-07 13:29:00,
2013-02-07 08:30:00,21.6,13.7,30.46,NNE,15,0.0,1.0,71,0.00,,---,0.00,VWS V14.01,2013-02-07 13:30:00,
2013-02-07 08:34:00,19.7,11.8,30.48,NNE,15,0.0,0.0,71,0.00,,---,0.00,VWS V14.01,2013-02-07 13:34:00,
2013-02-07 08:39:00,19.7,11.5,30.48,NNE,15,0.0,2.0,70,0.00,,---,0.00,VWS V14.01,2013-02-07 13:39:00,
2013-02-07 08:45:00,19.9,12.3,30.47,NNE,15,0.0,2.0,72,0.00,,---,0.00,VWS V14.01,2013-02-07 13:45:00,
2013-02-07 08:50:00,20.1,12.2,30.47,NNE,15,1.0,2.0,71,0.00,,---,0.00,VWS V14.01,2013-02-07 13:50:00,
2013-02-07 08:55:00,20.2,12.3,30.48,NNE,15,0.0,2.0,71,0.00,,---,0.00,VWS V14.01,2013-02-07 13:55:00,
2013-02-07 09:00:00,20.3,12.7,30.47,NNE,15,0.0,2.0,72,0.00,,---,0.00,VWS V14.01,2013-02-07 14:00:00,
2013-02-07 09:05:00,20.4,12.8,30.47,NNE,15,0.0,1.0,72,0.00,,---,0.00,VWS V14.01,2013-02-07 14:05:00,
2013-02-07 09:10:00,20.6,13.0,30.47,NNE,15,0.0,1.0,72,0.00,,---,0.00,VWS V14.01,2013-02-07 14:10:00,
2013-02-07 09:15:00,20.8,13.2,30.46,NNE,15,0.0,1.0,72,0.00,,---,0.00,VWS V14.01,2013-02-07 14:15:00,
2013-02-07 09:20:00,21.0,13.4,30.46,NNE,15,0.0,1.0,72,0.00,,---,0.00,VWS V14.01,2013-02-07 14:20:00,
2013-02-07 09:25:00,21.3,13.7,30.46,NNE,15,0.0,1.0,72,0.00,,---,0.00,VWS V14.01,2013-02-07 14:25:00,
2013-02-07 09:30:00,21.6,13.7,30.46,NNE,15,0.0,0.0,71,0.00,,---,0.00,VWS V14.01,2013-02-07 14:30:00,
2013-02-07 09:35:00,21.9,14.0,30.46,NNE,15,0.0,1.0,71,0.00,,---,0.00,VWS V14.01,2013-02-07 14:35:00,
2013-02-07 09:40:00,22.1,14.1,30.46,NNE,15,0.0,1.0,71,0.00,,---,0.00,VWS V14.01,2013-02-07 14:40:00,
2013-02-07 09:46:00,22.4,14.4,30.46,NNE,15,0.0,1.0,71,0.00,,---,0.00,VWS V14.01,2013-02-07 14:46:00,
2013-02-07 09:51:00,22.6,14.0,30.47,NE,39,0.0,2.0,69,0.00,,---,0.00,VWS V14.01,2013-02-07 14:51:00,
2013-02-07 09:56:00,22.9,13.9,30.47,NE,39,0.0,2.0,68,0.00,,---,0.00,VWS V14.01,2013-02-07 14:56:00,
2013-02-07 10:00:00,26.1,15.6,30.47,West,269,0.0,2.0,64,0.00,,---,0.00,VWS V14.01,2013-02-07 15:00:00,
2013-02-07 10:01:00,23.2,14.2,30.47,NE,39,0.0,1.0,68,0.00,,---,0.00,VWS V14.01,2013-02-07 15:01:00,
2013-02-07 10:06:00,23.4,13.7,30.47,NE,39,0.0,1.0,66,0.00,,---,0.00,VWS V14.01,2013-02-07 15:06:00,
2013-02-07 10:11:00,23.7,14.0,30.47,NE,39,0.0,1.0,66,0.00,,---,0.00,VWS V14.01,2013-02-07 15:11:00,
2013-02-07 10:16:00,23.9,13.9,30.47,NE,39,0.0,1.0,65,0.00,,---,0.00,VWS V14.01,2013-02-07 15:16:00,
2013-02-07 10:21:00,24.1,13.7,30.47,NE,39,0.0,1.0,64,0.00,,---,0.00,VWS V14.01,2013-02-07 15:21:00,
2013-02-07 10:26:00,24.3,14.2,30.47,NE,39,0.0,1.0,65,0.00,,---,0.00,VWS V14.01,2013-02-07 15:26:00,
2013-02-07 10:30:00,27.4,17.5,30.46,SSW,197,0.0,2.0,66,0.00,,---,0.00,VWS V14.01,2013-02-07 15:30:00,
2013-02-07 10:31:00,24.5,14.1,30.47,NE,40,0.0,1.0,64,0.00,,---,0.00,VWS V14.01,2013-02-07 15:31:00,
2013-02-07 10:36:00,24.9,14.1,30.47,NE,40,0.0,1.0,63,0.00,,---,0.00,VWS V14.01,2013-02-07 15:36:00,
2013-02-07 10:41:00,25.2,14.0,30.47,NE,40,0.0,1.0,62,0.00,,---,0.00,VWS V14.01,2013-02-07 15:41:00,
2013-02-07 10:47:00,25.5,14.3,30.47,NE,40,0.0,1.0,62,0.00,,---,0.00,VWS V14.01,2013-02-07 15:47:00,
2013-02-07 10:52:00,25.9,15.8,30.47,South,186,0.0,2.0,65,0.00,,---,0.00,VWS V14.01,2013-02-07 15:52:00,
2013-02-07 10:57:00,26.1,16.0,30.47,West,268,1.0,2.0,65,0.00,,---,0.00,VWS V14.01,2013-02-07 15:57:00,
2013-02-07 11:00:00,28.5,16.4,30.45,SSW,202,1.0,3.0,60,0.00,,---,0.00,VWS V14.01,2013-02-07 16:00:00,
2013-02-07 11:02:00,26.2,16.1,30.47,West,269,0.0,0.0,65,0.00,,---,0.00,VWS V14.01,2013-02-07 16:02:00,
2013-02-07 11:07:00,26.2,15.7,30.47,NE,34,1.0,2.0,64,0.00,,---,0.00,VWS V14.01,2013-02-07 16:07:00,
2013-02-07 11:12:00,26.2,16.4,30.47,NE,34,0.0,2.0,66,0.00,,---,0.00,VWS V14.01,2013-02-07 16:12:00,
2013-02-07 11:17:00,26.5,16.7,30.47,South,177,0.0,2.0,66,0.00,,---,0.00,VWS V14.01,2013-02-07 16:17:00,
2013-02-07 11:22:00,26.7,16.5,30.46,South,173,0.0,2.0,65,0.00,,---,0.00,VWS V14.01,2013-02-07 16:22:00,
2013-02-07 11:27:00,27.1,17.3,30.46,South,173,0.0,2.0,66,0.00,,---,0.00,VWS V14.01,2013-02-07 16:27:00,
2013-02-07 11:30:00,28.1,16.8,30.44,NW,309,0.0,4.0,62,0.00,,---,0.00,VWS V14.01,2013-02-07 16:30:00,
2013-02-07 11:32:00,27.5,16.6,30.46,South,190,0.0,3.0,63,0.00,,---,0.00,VWS V14.01,2013-02-07 16:32:00,
2013-02-07 11:37:00,27.8,16.9,30.46,South,190,0.0,3.0,63,0.00,,---,0.00,VWS V14.01,2013-02-07 16:37:00,
2013-02-07 11:42:00,28.1,16.4,30.46,NNE,15,0.0,3.0,61,0.00,,---,0.00,VWS V14.01,2013-02-07 16:42:00,
2013-02-07 11:47:00,28.3,17.0,30.46,NNE,15,1.0,3.0,62,0.00,,---,0.00,VWS V14.01,2013-02-07 16:47:00,
2013-02-07 11:52:00,28.3,16.6,30.46,SW,214,1.0,3.0,61,0.00,,---,0.00,VWS V14.01,2013-02-07 16:52:00,
2013-02-07 11:57:00,28.4,16.7,30.45,SW,214,0.0,3.0,61,0.00,,---,0.00,VWS V14.01,2013-02-07 16:57:00,
2013-02-07 12:00:00,28.5,17.1,30.43,North,360,0.0,3.0,62,0.00,,---,0.00,VWS V14.01,2013-02-07 17:00:00,
2013-02-07 12:02:00,28.5,16.4,30.45,SSW,202,1.0,3.0,60,0.00,,---,0.00,VWS V14.01,2013-02-07 17:02:00,
2013-02-07 12:08:00,28.4,16.7,30.44,SSW,202,3.0,4.0,61,0.00,,---,0.00,VWS V14.01,2013-02-07 17:08:00,
2013-02-07 12:13:00,28.4,16.7,30.44,SSW,192,1.0,4.0,61,0.00,,---,0.00,VWS V14.01,2013-02-07 17:13:00,
2013-02-07 12:18:00,28.4,17.1,30.44,ENE,78,0.0,4.0,62,0.00,,---,0.00,VWS V14.01,2013-02-07 17:18:00,
2013-02-07 12:23:00,28.4,16.7,30.44,SSW,205,0.0,4.0,61,0.00,,---,0.00,VWS V14.01,2013-02-07 17:23:00,
2013-02-07 12:28:00,28.1,16.8,30.44,NW,313,0.0,4.0,62,0.00,,---,0.00,VWS V14.01,2013-02-07 17:28:00,
2013-02-07 12:30:00,28.5,17.5,30.42,NE,36,0.0,2.0,63,0.00,,---,0.00,VWS V14.01,2013-02-07 17:30:00,
2013-02-07 12:33:00,28.2,16.9,30.43,NW,309,0.0,1.0,62,0.00,,---,0.00,VWS V14.01,2013-02-07 17:33:00,
2013-02-07 12:38:00,28.3,16.6,30.43,NE,37,1.0,3.0,61,0.00,,---,0.00,VWS V14.01,2013-02-07 17:38:00,
2013-02-07 12:43:00,28.4,17.4,30.43,NE,37,0.0,3.0,63,0.00,,---,0.00,VWS V14.01,2013-02-07 17:43:00,
2013-02-07 12:48:00,28.7,17.7,30.43,SW,232,1.0,3.0,63,0.00,,---,0.00,VWS V14.01,2013-02-07 17:48:00,
2013-02-07 12:53:00,28.6,17.2,30.43,SSW,196,1.0,3.0,62,0.00,,---,0.00,VWS V14.01,2013-02-07 17:53:00,
2013-02-07 12:58:00,28.5,17.5,30.43,NNW,346,0.0,3.0,63,0.00,,---,0.00,VWS V14.01,2013-02-07 17:58:00,
2013-02-07 13:00:00,28.7,17.7,30.40,NE,44,0.0,2.0,63,0.00,,---,0.00,VWS V14.01,2013-02-07 18:00:00,
2013-02-07 13:03:00,28.5,17.5,30.43,SW,235,0.0,1.0,63,0.00,,---,0.00,VWS V14.01,2013-02-07 18:03:00,
2013-02-07 13:09:00,28.5,17.5,30.43,SW,217,1.0,2.0,63,0.00,,---,0.00,VWS V14.01,2013-02-07 18:09:00,
2013-02-07 13:14:00,28.4,17.4,30.43,West,259,0.0,2.0,63,0.00,,---,0.00,VWS V14.01,2013-02-07 18:14:00,
2013-02-07 13:19:00,28.5,17.5,30.42,NW,325,0.0,2.0,63,0.00,,---,0.00,VWS V14.01,2013-02-07 18:19:00,
2013-02-07 13:24:00,28.5,17.9,30.42,NE,34,0.0,2.0,64,0.00,,---,0.00,VWS V14.01,2013-02-07 18:24:00,
2013-02-07 13:29:00,28.5,17.1,30.42,NE,36,0.0,2.0,62,0.00,,---,0.00,VWS V14.01,2013-02-07 18:29:00,
2013-02-07 13:30:00,29.1,18.8,30.40,SSE,165,1.0,2.0,65,0.00,,---,0.00,VWS V14.01,2013-02-07 18:30:00,
2013-02-07 13:34:00,28.5,17.9,30.42,NW,304,0.0,1.0,64,0.00,,---,0.00,VWS V14.01,2013-02-07 18:34:00,
2013-02-07 13:39:00,28.6,18.0,30.41,SSW,196,0.0,2.0,64,0.00,,---,0.00,VWS V14.01,2013-02-07 18:39:00,
2013-02-07 13:44:00,28.6,18.0,30.41,SW,233,0.0,2.0,64,0.00,,---,0.00,VWS V14.01,2013-02-07 18:44:00,
2013-02-07 13:50:00,28.8,18.2,30.41,NNE,33,0.0,2.0,64,0.00,,---,0.00,VWS V14.01,2013-02-07 18:50:00,
2013-02-07 13:55:00,28.8,17.8,30.40,North,355,0.0,2.0,63,0.00,,---,0.00,VWS V14.01,2013-02-07 18:55:00,
2013-02-07 14:00:00,28.7,17.7,30.40,NNE,30,2.0,2.0,63,0.00,,---,0.00,VWS V14.01,2013-02-07 19:00:00,
2013-02-07 14:05:00,28.8,18.2,30.40,NE,44,0.0,1.0,64,0.00,,---,0.00,VWS V14.01,2013-02-07 19:05:00,
2013-02-07 14:10:00,28.8,17.8,30.40,NE,40,0.0,1.0,63,0.00,,---,0.00,VWS V14.01,2013-02-07 19:10:00,
2013-02-07 14:15:00,28.9,17.9,30.40,SSW,194,0.0,2.0,63,0.00,,---,0.00,VWS V14.01,2013-02-07 19:15:00,
2013-02-07 14:20:00,28.9,17.9,30.40,SSW,194,0.0,2.0,63,0.00,,---,0.00,VWS V14.01,2013-02-07 19:20:00,
2013-02-07 14:25:00,29.0,18.0,30.41,ENE,77,0.0,2.0,63,0.00,,---,0.00,VWS V14.01,2013-02-07 19:25:00,
2013-02-07 14:30:00,29.1,18.8,30.40,NNW,348,1.0,1.0,65,0.00,,---,0.00,VWS V14.01,2013-02-07 19:30:00,
2013-02-07 14:36:00,29.0,18.0,30.40,NNE,17,0.0,1.0,63,0.00,,---,0.00,VWS V14.01,2013-02-07 19:36:00,
2013-02-07 14:41:00,28.9,17.9,30.40,NNW,328,0.0,2.0,63,0.00,,---,0.00,VWS V14.01,2013-02-07 19:41:00,
2013-02-07 14:46:00,28.7,17.7,30.40,NNW,343,0.0,2.0,63,0.00,,---,0.00,VWS V14.01,2013-02-07 19:46:00,
2013-02-07 14:51:00,28.6,17.6,30.40,North,360,0.0,3.0,63,0.00,,---,0.00,VWS V14.01,2013-02-07 19:51:00,
2013-02-07 14:56:00,28.5,18.2,30.40,NNE,21,1.0,3.0,65,0.00,,---,0.00,VWS V14.01,2013-02-07 19:56:00,
2013-02-07 15:00:00,28.7,18.4,30.38,North,355,0.0,2.0,65,0.00,,---,0.00,VWS V14.01,2013-02-07 20:00:00,
2013-02-07 15:01:00,28.5,17.5,30.40,ENE,64,0.0,1.0,63,0.00,,---,0.00,VWS V14.01,2013-02-07 20:01:00,
2013-02-07 15:06:00,28.5,17.9,30.40,NNE,29,0.0,2.0,64,0.00,,---,0.00,VWS V14.01,2013-02-07 20:06:00,
2013-02-07 15:11:00,28.6,17.6,30.40,NNE,29,0.0,2.0,63,0.00,,---,0.00,VWS V14.01,2013-02-07 20:11:00,
2013-02-07 15:16:00,28.7,18.1,30.39,NNE,29,0.0,2.0,64,0.00,,---,0.00,VWS V14.01,2013-02-07 20:16:00,
2013-02-07 15:21:00,28.9,18.3,30.39,NNE,29,0.0,2.0,64,0.00,,---,0.00,VWS V14.01,2013-02-07 20:21:00,
2013-02-07 15:26:00,28.9,17.5,30.39,ENE,69,0.0,2.0,62,0.00,,---,0.00,VWS V14.01,2013-02-07 20:26:00,
2013-02-07 15:30:00,28.2,19.0,30.38,NE,36,0.0,2.0,68,0.00,,---,0.00,VWS V14.01,2013-02-07 20:30:00,
2013-02-07 15:31:00,29.0,18.0,30.39,ENE,69,0.0,0.0,63,0.00,,---,0.00,VWS V14.01,2013-02-07 20:31:00,
2013-02-07 15:36:00,28.9,17.5,30.39,ENE,59,0.0,2.0,62,0.00,,---,0.00,VWS V14.01,2013-02-07 20:36:00,
2013-02-07 15:41:00,28.9,17.9,30.39,NNE,26,0.0,2.0,63,0.00,,---,0.00,VWS V14.01,2013-02-07 20:41:00,
2013-02-07 15:46:00,28.8,17.1,30.39,ENE,63,0.0,2.0,61,0.00,,---,0.00,VWS V14.01,2013-02-07 20:46:00,
2013-02-07 15:51:00,28.8,17.4,30.38,NE,35,0.0,2.0,62,0.00,,---,0.00,VWS V14.01,2013-02-07 20:51:00,
2013-02-07 15:57:00,28.7,18.1,30.38,WNW,295,0.0,2.0,64,0.00,,---,0.00,VWS V14.01,2013-02-07 20:57:00,
2013-02-07 16:00:00,27.3,18.5,30.38,NNE,25,1.0,3.0,69,0.00,,---,0.00,VWS V14.01,2013-02-07 21:00:00,
2013-02-07 16:02:00,28.7,18.1,30.38,North,11,0.0,1.0,64,0.00,,---,0.00,VWS V14.01,2013-02-07 21:02:00,
2013-02-07 16:07:00,28.6,17.6,30.38,West,281,0.0,2.0,63,0.00,,---,0.00,VWS V14.01,2013-02-07 21:07:00,
2013-02-07 16:12:00,28.5,18.2,30.38,NNW,348,0.0,2.0,65,0.00,,---,0.00,VWS V14.01,2013-02-07 21:12:00,
2013-02-07 16:17:00,28.4,18.5,30.38,NNW,342,0.0,2.0,66,0.00,,---,0.00,VWS V14.01,2013-02-07 21:17:00,
2013-02-07 16:22:00,28.3,18.8,30.38,NNE,30,0.0,2.0,67,0.00,,---,0.00,VWS V14.01,2013-02-07 21:22:00,
2013-02-07 16:27:00,28.2,19.0,30.38,NE,36,1.0,2.0,68,0.00,,---,0.00,VWS V14.01,2013-02-07 21:27:00,
2013-02-07 16:30:00,26.6,17.8,30.38,WNW,288,0.0,2.0,69,0.00,,---,0.00,VWS V14.01,2013-02-07 21:30:00,
2013-02-07 16:32:00,28.1,19.3,30.38,NE,36,0.0,1.0,69,0.00,,---,0.00,VWS V14.01,2013-02-07 21:32:00,
2013-02-07 16:38:00,28.0,18.5,30.37,NNE,28,0.0,2.0,67,0.00,,---,0.00,VWS V14.01,2013-02-07 21:38:00,
2013-02-07 16:43:00,27.8,18.6,30.37,NNE,30,0.0,2.0,68,0.00,,---,0.00,VWS V14.01,2013-02-07 21:43:00,
2013-02-07 16:48:00,27.6,18.4,30.37,North,350,0.0,3.0,68,0.00,,---,0.00,VWS V14.01,2013-02-07 21:48:00,
2013-02-07 16:53:00,27.5,18.3,30.37,North,5,0.0,3.0,68,0.00,,---,0.00,VWS V14.01,2013-02-07 21:53:00,
2013-02-07 16:58:00,27.3,18.1,30.38,NNE,24,0.0,3.0,68,0.00,,---,0.00,VWS V14.01,2013-02-07 21:58:00,
2013-02-07 17:00:00,25.8,16.7,30.38,NNW,340,0.0,2.0,68,0.00,,---,0.00,VWS V14.01,2013-02-07 22:00:00,
2013-02-07 17:03:00,27.2,18.4,30.38,SW,236,0.0,2.0,69,0.00,,---,0.00,VWS V14.01,2013-02-07 22:03:00,
2013-02-07 17:08:00,27.1,18.3,30.38,NNE,26,1.0,2.0,69,0.00,,---,0.00,VWS V14.01,2013-02-07 22:08:00,
2013-02-07 17:13:00,27.0,18.2,30.38,NNE,26,0.0,2.0,69,0.00,,---,0.00,VWS V14.01,2013-02-07 22:13:00,
2013-02-07 17:18:00,26.9,18.1,30.38,North,5,0.0,2.0,69,0.00,,---,0.00,VWS V14.01,2013-02-07 22:18:00,
2013-02-07 17:23:00,26.7,17.9,30.38,North,5,0.0,2.0,69,0.00,,---,0.00,VWS V14.01,2013-02-07 22:23:00,
2013-02-07 17:28:00,26.6,17.8,30.38,North,5,0.0,2.0,69,0.00,,---,0.00,VWS V14.01,2013-02-07 22:28:00,
2013-02-07 17:30:00,25.1,16.0,30.39,NNW,344,1.0,2.0,68,0.00,,---,0.00,VWS V14.01,2013-02-07 22:30:00,
2013-02-07 17:33:00,26.5,17.7,30.38,WNW,288,0.0,1.0,69,0.00,,---,0.00,VWS V14.01,2013-02-07 22:33:00,
2013-02-07 17:38:00,26.4,17.3,30.38,NNW,338,0.0,1.0,68,0.00,,---,0.00,VWS V14.01,2013-02-07 22:38:00,
2013-02-07 17:43:00,26.2,17.1,30.38,North,355,2.0,2.0,68,0.00,,---,0.00,VWS V14.01,2013-02-07 22:43:00,
2013-02-07 17:49:00,26.1,17.0,30.38,North,5,0.0,2.0,68,0.00,,---,0.00,VWS V14.01,2013-02-07 22:49:00,
2013-02-07 17:54:00,26.0,16.6,30.38,North,355,0.0,2.0,67,0.00,,---,0.00,VWS V14.01,2013-02-07 22:54:00,
2013-02-07 17:59:00,25.8,16.7,30.38,NNW,338,0.0,2.0,68,0.00,,---,0.00,VWS V14.01,2013-02-07 22:59:00,
2013-02-07 18:00:00,24.8,15.8,30.39,NNE,28,1.0,2.0,68,0.00,,---,0.00,VWS V14.01,2013-02-07 23:00:00,
2013-02-07 18:04:00,25.7,16.6,30.38,West,271,1.0,1.0,68,0.00,,---,0.00,VWS V14.01,2013-02-07 23:04:00,
2013-02-07 18:09:00,25.5,16.1,30.38,NE,43,1.0,1.0,67,0.00,,---,0.00,VWS V14.01,2013-02-07 23:09:00,
2013-02-07 18:14:00,25.4,16.0,30.38,WNW,302,0.0,1.0,67,0.00,,---,0.00,VWS V14.01,2013-02-07 23:14:00,
2013-02-07 18:19:00,25.3,15.9,30.38,WNW,302,0.0,1.0,67,0.00,,---,0.00,VWS V14.01,2013-02-07 23:19:00,
2013-02-07 18:24:00,25.2,15.8,30.39,North,5,0.0,2.0,67,0.00,,---,0.00,VWS V14.01,2013-02-07 23:24:00,
2013-02-07 18:29:00,25.1,16.0,30.39,North,5,1.0,2.0,68,0.00,,---,0.00,VWS V14.01,2013-02-07 23:29:00,
2013-02-07 18:30:00,24.9,16.5,30.40,NNE,24,0.0,2.0,70,0.00,,---,0.00,VWS V14.01,2013-02-07 23:30:00,
2013-02-07 18:34:00,25.0,15.9,30.39,North,349,0.0,1.0,68,0.00,,---,0.00,VWS V14.01,2013-02-07 23:34:00,
2013-02-07 18:40:00,25.0,15.9,30.39,NNE,32,0.0,2.0,68,0.00,,---,0.00,VWS V14.01,2013-02-07 23:40:00,
2013-02-07 18:45:00,24.9,15.9,30.39,SW,228,2.0,2.0,68,0.00,,---,0.00,VWS V14.01,2013-02-07 23:45:00,
2013-02-07 18:50:00,24.8,15.8,30.40,SW,232,0.0,2.0,68,0.00,,---,0.00,VWS V14.01,2013-02-07 23:50:00,
2013-02-07 18:55:00,24.8,15.8,30.39,WNW,298,0.0,2.0,68,0.00,,---,0.00,VWS V14.01,2013-02-07 23:55:00,
2013-02-07 19:00:00,24.8,15.8,30.39,NNE,28,0.0,2.0,68,0.00,,---,0.00,VWS V14.01,2013-02-08 00:00:00,
2013-02-07 19:05:00,24.8,16.1,30.39,WNW,286,0.0,1.0,69,0.00,,---,0.00,VWS V14.01,2013-02-08 00:05:00,
2013-02-07 19:10:00,24.9,15.9,30.40,NW,315,0.0,2.0,68,0.00,,---,0.00,VWS V14.01,2013-02-08 00:10:00,
2013-02-07 19:15:00,24.9,16.2,30.40,NW,315,0.0,2.0,69,0.00,,---,0.00,VWS V14.01,2013-02-08 00:15:00,
2013-02-07 19:20:00,24.9,16.2,30.39,NNE,24,0.0,2.0,69,0.00,,---,0.00,VWS V14.01,2013-02-08 00:20:00,
2013-02-07 19:26:00,24.9,16.5,30.40,NNE,24,0.0,2.0,70,0.00,,---,0.00,VWS V14.01,2013-02-08 00:26:00,
2013-02-07 19:30:00,25.0,16.9,30.38,WNW,300,0.0,2.0,71,0.00,,---,0.00,VWS V14.01,2013-02-08 00:30:00,
2013-02-07 19:31:00,24.9,16.5,30.40,NNE,24,0.0,0.0,70,0.00,,---,0.00,VWS V14.01,2013-02-08 00:31:00,
2013-02-07 19:36:00,24.9,16.5,30.39,NNE,24,0.0,0.0,70,0.00,,---,0.00,VWS V14.01,2013-02-08 00:36:00,
2013-02-07 19:41:00,24.9,16.5,30.39,NW,311,0.0,2.0,70,0.00,,---,0.00,VWS V14.01,2013-02-08 00:41:00,
2013-02-07 19:46:00,24.9,16.5,30.39,NW,311,0.0,2.0,70,0.00,,---,0.00,VWS V14.01,2013-02-08 00:46:00,
2013-02-07 19:51:00,25.0,16.6,30.39,NW,311,0.0,2.0,70,0.00,,---,0.00,VWS V14.01,2013-02-08 00:51:00,
2013-02-07 19:56:00,25.0,16.6,30.39,NW,313,0.0,2.0,70,0.00,,---,0.00,VWS V14.01,2013-02-08 00:56:00,
2013-02-07 20:00:00,25.2,17.5,30.37,NNE,21,0.0,2.0,72,0.00,,---,0.00,VWS V14.01,2013-02-08 01:00:00,
2013-02-07 20:01:00,25.1,16.7,30.39,NW,313,0.0,0.0,70,0.00,,---,0.00,VWS V14.01,2013-02-08 01:01:00,
2013-02-07 20:07:00,25.0,16.9,30.39,WNW,296,0.0,1.0,71,0.00,,---,0.00,VWS V14.01,2013-02-08 01:07:00,
2013-02-07 20:12:00,25.0,16.9,30.38,NW,325,0.0,1.0,71,0.00,,---,0.00,VWS V14.01,2013-02-08 01:12:00,
2013-02-07 20:17:00,25.0,16.6,30.38,SW,224,0.0,1.0,70,0.00,,---,0.00,VWS V14.01,2013-02-08 01:17:00,
2013-02-07 20:22:00,25.1,16.7,30.38,NNW,337,0.0,1.0,70,0.00,,---,0.00,VWS V14.01,2013-02-08 01:22:00,
2013-02-07 20:27:00,25.0,16.9,30.38,North,350,0.0,2.0,71,0.00,,---,0.00,VWS V14.01,2013-02-08 01:27:00,
2013-02-07 20:30:00,25.4,18.0,30.36,North,355,0.0,2.0,73,0.00,,---,0.00,VWS V14.01,2013-02-08 01:30:00,
2013-02-07 20:32:00,25.0,16.9,30.37,NW,317,0.0,1.0,71,0.00,,---,0.00,VWS V14.01,2013-02-08 01:32:00,
2013-02-07 20:37:00,25.0,16.9,30.37,NE,34,0.0,1.0,71,0.00,,---,0.00,VWS V14.01,2013-02-08 01:37:00,
2013-02-07 20:42:00,25.0,16.9,30.37,East,99,0.0,2.0,71,0.00,,---,0.00,VWS V14.01,2013-02-08 01:42:00,
2013-02-07 20:47:00,25.0,16.9,30.37,SSW,208,0.0,2.0,71,0.00,,---,0.00,VWS V14.01,2013-02-08 01:47:00,
2013-02-07 20:52:00,25.0,17.3,30.37,NNE,17,0.0,2.0,72,0.00,,---,0.00,VWS V14.01,2013-02-08 01:52:00,
2013-02-07 20:57:00,25.1,17.4,30.37,NNW,340,1.0,2.0,72,0.00,,---,0.00,VWS V14.01,2013-02-08 01:57:00,
2013-02-07 21:00:00,25.6,18.5,30.35,ENE,76,1.0,3.0,74,0.00,,---,0.00,VWS V14.01,2013-02-08 02:00:00,
2013-02-07 21:02:00,25.2,17.5,30.36,NNE,16,0.0,1.0,72,0.00,,---,0.00,VWS V14.01,2013-02-08 02:02:00,
2013-02-07 21:07:00,25.2,17.5,30.36,ESE,107,1.0,1.0,72,0.00,,---,0.00,VWS V14.01,2013-02-08 02:07:00,
2013-02-07 21:12:00,25.3,17.5,30.36,NNE,19,0.0,2.0,72,0.00,,---,0.00,VWS V14.01,2013-02-08 02:12:00,
2013-02-07 21:18:00,25.4,18.0,30.36,NNE,19,0.0,2.0,73,0.00,,---,0.00,VWS V14.01,2013-02-08 02:18:00,
2013-02-07 21:23:00,25.4,18.0,30.36,NNE,17,0.0,2.0,73,0.00,,---,0.00,VWS V14.01,2013-02-08 02:23:00,
2013-02-07 21:28:00,25.4,18.3,30.36,North,355,0.0,2.0,74,0.00,,---,0.00,VWS V14.01,2013-02-08 02:28:00,
2013-02-07 21:30:00,25.7,18.9,30.34,ENE,58,1.0,3.0,75,0.00,,---,0.00,VWS V14.01,2013-02-08 02:30:00,
2013-02-07 21:33:00,25.4,18.0,30.36,SW,219,0.0,3.0,73,0.00,,---,0.00,VWS V14.01,2013-02-08 02:33:00,
2013-02-07 21:38:00,25.4,18.0,30.36,NNE,30,0.0,3.0,73,0.00,,---,0.00,VWS V14.01,2013-02-08 02:38:00,
2013-02-07 21:43:00,25.5,18.1,30.36,NE,50,0.0,3.0,73,0.00,,---,0.00,VWS V14.01,2013-02-08 02:43:00,
2013-02-07 21:48:00,25.5,18.1,30.35,NE,50,0.0,3.0,73,0.00,,---,0.00,VWS V14.01,2013-02-08 02:48:00,
2013-02-07 21:53:00,25.5,18.4,30.35,ENE,78,0.0,3.0,74,0.00,,---,0.00,VWS V14.01,2013-02-08 02:53:00,
2013-02-07 21:58:00,25.6,18.5,30.35,ENE,78,0.0,3.0,74,0.00,,---,0.00,VWS V14.01,2013-02-08 02:58:00,
2013-02-07 22:00:00,25.7,19.2,30.31,NE,53,0.0,3.0,76,0.00,,---,0.00,VWS V14.01,2013-02-08 03:00:00,
2013-02-07 22:03:00,25.6,18.5,30.35,East,90,0.0,1.0,74,0.00,,---,0.00,VWS V14.01,2013-02-08 03:03:00,
2013-02-07 22:08:00,25.6,18.5,30.34,North,355,0.0,1.0,74,0.00,,---,0.00,VWS V14.01,2013-02-08 03:08:00,
2013-02-07 22:13:00,25.6,18.5,30.34,NNE,32,0.0,2.0,74,0.00,,---,0.00,VWS V14.01,2013-02-08 03:13:00,
2013-02-07 22:18:00,25.6,18.5,30.34,NNE,19,0.0,2.0,74,0.00,,---,0.00,VWS V14.01,2013-02-08 03:18:00,
2013-02-07 22:23:00,25.6,18.8,30.34,NNE,20,0.0,2.0,75,0.00,,---,0.00,VWS V14.01,2013-02-08 03:23:00,
2013-02-07 22:29:00,25.7,18.9,30.34,ENE,68,0.0,3.0,75,0.00,,---,0.00,VWS V14.01,2013-02-08 03:29:00,
2013-02-07 22:30:00,26.0,20.1,30.29,NE,46,0.0,3.0,78,0.00,,---,0.00,VWS V14.01,2013-02-08 03:30:00,
2013-02-07 22:34:00,25.7,18.9,30.33,NNE,29,1.0,2.0,75,0.00,,---,0.00,VWS V14.01,2013-02-08 03:34:00,
2013-02-07 22:39:00,25.7,18.9,30.33,NE,34,1.0,3.0,75,0.00,,---,0.00,VWS V14.01,2013-02-08 03:39:00,
2013-02-07 22:44:00,25.7,18.9,30.33,NE,37,1.0,3.0,75,0.00,,---,0.00,VWS V14.01,2013-02-08 03:44:00,
2013-02-07 22:49:00,25.7,19.2,30.32,ENE,61,0.0,3.0,76,0.00,,---,0.00,VWS V14.01,2013-02-08 03:49:00,
2013-02-07 22:54:00,25.7,19.2,30.32,ENE,74,0.0,3.0,76,0.00,,---,0.00,VWS V14.01,2013-02-08 03:54:00,
2013-02-07 22:59:00,25.7,19.2,30.31,NE,56,0.0,3.0,76,0.00,,---,0.00,VWS V14.01,2013-02-08 03:59:00,
2013-02-07 23:00:00,26.6,21.6,30.28,NNE,17,1.0,2.0,81,0.00,,---,0.00,VWS V14.01,2013-02-08 04:00:00,
2013-02-07 23:05:00,25.7,19.2,30.31,NE,36,0.0,1.0,76,0.00,,---,0.00,VWS V14.01,2013-02-08 04:05:00,
2013-02-07 23:10:00,25.8,19.3,30.30,NE,36,1.0,2.0,76,0.00,,---,0.00,VWS V14.01,2013-02-08 04:10:00,
2013-02-07 23:15:00,25.8,19.6,30.30,NNE,32,0.0,3.0,77,0.00,,---,0.00,VWS V14.01,2013-02-08 04:15:00,
2013-02-07 23:20:00,25.8,19.9,30.30,East,80,0.0,3.0,78,0.00,,---,0.00,VWS V14.01,2013-02-08 04:20:00,
2013-02-07 23:25:00,25.9,20.0,30.30,NE,55,1.0,3.0,78,0.00,,---,0.00,VWS V14.01,2013-02-08 04:25:00,
2013-02-07 23:30:00,26.0,20.1,30.29,NE,44,0.0,3.0,78,0.00,,---,0.00,VWS V14.01,2013-02-08 04:30:00,
2013-02-07 23:35:00,26.1,20.5,30.29,NE,39,0.0,2.0,79,0.00,,---,0.00,VWS V14.01,2013-02-08 04:35:00,
2013-02-07 23:40:00,26.2,20.6,30.29,NE,39,1.0,2.0,79,0.00,,---,0.00,VWS V14.01,2013-02-08 04:40:00,
2013-02-07 23:45:00,26.3,21.0,30.29,ENE,69,1.0,2.0,80,0.00,,---,0.00,VWS V14.01,2013-02-08 04:45:00,
2013-02-07 23:50:00,26.3,21.0,30.28,East,88,0.0,2.0,80,0.00,,---,0.00,VWS V14.01,2013-02-08 04:50:00,
2013-02-07 23:55:00,26.5,21.5,30.28,NNE,22,0.0,2.0,81,0.00,,---,0.00,VWS V14.01,2013-02-08 04:55:00,